Saint Lawrence, South Dakota
Current Conditions -  °F | °C
As of 4:55 AM on Sunday 23 Nov 2014 (Local Time) from KHON Reporting Station
Overcast Overcast  
Wind Chill: 29°   Ceiling: 3400
Heat Index: 35°   Visibility: 10mi
Dew Point: 32°   Wind: 7mph
Humidity: 89%   Direction: 300°WNW
Pressure: 29.47"   Gusts: NA
Location:  44.52°N, 98.94°W
Report Text: KHON 231055Z AUTO 30006KT 10SM BKN034 OVC085 02/00 A2947 RMK AO2 SLP989 T00170000
Loading
Personal Weather Stations






























Interactive Weather Map New forecast layout! Learn more

10-Day Weather Forecast

Advertisements
Track Severe Weather on mobile